Time;durP1;ratioP1;P1;durP2;ratioP2;P2;SDS_P1;SDS_P2;PMS_P1;PMS_P2;Temp;Humidity;BMP_temperature;BMP_pressure;BME280_temperature;BME280_humidity;BME280_pressure;Samples;Min_cycle;Max_cycle;Signal;HPM_P1;HPM_P2
2021/10/17 00:01:12;;;;;;;2.03;1.93;;;;;;;21.39;63.18;97848.69;4990772;28;20244;-61
2021/10/17 00:03:39;;;;;;;1.97;1.87;;;;;;;21.36;63.01;97844.34;4999184;28;20257;-61
2021/10/17 00:06:06;;;;;;;2.10;1.90;;;;;;;21.39;62.94;97849.56;5028013;28;20313;-60
2021/10/17 00:08:32;;;;;;;2.00;1.90;;;;;;;21.40;62.88;97853.84;4999758;28;20238;-61
2021/10/17 00:10:59;;;;;;;2.00;1.80;;;;;;;21.39;63.23;97854.66;5017464;28;20614;-61
2021/10/17 00:13:25;;;;;;;2.10;2.00;;;;;;;21.41;62.96;97854.72;4999565;28;20237;-61
2021/10/17 00:15:52;;;;;;;2.30;2.10;;;;;;;21.38;63.14;97846.94;5019282;28;20229;-61
2021/10/17 00:18:19;;;;;;;4.27;2.10;;;;;;;21.34;62.87;97843.41;5007365;28;20246;-61
2021/10/17 00:20:46;;;;;;;2.77;2.13;;;;;;;21.35;63.30;97847.69;5017743;28;20688;-61
2021/10/17 00:23:12;;;;;;;2.17;1.97;;;;;;;21.39;62.85;97847.00;5001638;28;20310;-62
2021/10/17 00:25:39;;;;;;;1.97;1.87;;;;;;;21.39;63.08;97852.13;5018676;28;20237;-61
2021/10/17 00:28:05;;;;;;;1.87;1.77;;;;;;;21.37;63.37;97851.19;5017587;28;20495;-61
2021/10/17 00:30:32;;;;;;;2.30;2.10;;;;;;;21.36;63.20;97846.91;5021963;28;20272;-61
2021/10/17 00:32:59;;;;;;;2.17;1.97;;;;;;;21.37;63.01;97851.19;5024993;28;20194;-60
2021/10/17 00:35:25;;;;;;;2.10;1.90;;;;;;;21.34;63.15;97842.53;5018367;28;20230;-60
2021/10/17 00:37:52;;;;;;;2.30;2.10;;;;;;;21.37;63.17;97846.06;5000285;28;20334;-60
2021/10/17 00:40:19;;;;;;;2.20;2.00;;;;;;;21.29;63.27;97828.72;5019179;28;20206;-61
2021/10/17 00:42:46;;;;;;;1.93;1.83;;;;;;;21.27;62.72;97815.00;5026985;28;20280;-61
2021/10/17 00:45:16;;;;;;;2.03;1.93;;;;;;;21.35;63.04;97826.38;4969840;28;20225;-60
2021/10/17 00:47:43;;;;;;;2.17;2.07;;;;;;;21.40;63.41;97837.63;4987552;28;20248;-61
2021/10/17 00:50:09;;;;;;;2.20;2.00;;;;;;;21.40;62.78;97840.19;5007289;28;20289;-62
2021/10/17 00:52:37;;;;;;;2.20;2.00;;;;;;;21.38;62.94;97837.56;5013931;28;20812;-61
2021/10/17 00:55:04;;;;;;;2.10;1.90;;;;;;;21.41;62.81;97849.63;5019445;28;20240;-60
2021/10/17 00:57:32;;;;;;;2.30;2.10;;;;;;;21.41;63.06;97841.94;5017129;28;20254;-61
2021/10/17 00:59:58;;;;;;;2.20;2.00;;;;;;;21.38;63.05;97831.59;5020763;28;20260;-61
2021/10/17 01:02:25;;;;;;;2.13;1.93;;;;;;;21.39;62.88;97839.34;5011996;28;20317;-61
2021/10/17 01:04:52;;;;;;;1.90;1.80;;;;;;;21.32;62.91;97818.59;5013170;28;20212;-61
2021/10/17 01:07:18;;;;;;;2.20;2.00;;;;;;;21.41;62.85;97837.69;4982099;28;20320;-60
2021/10/17 01:09:45;;;;;;;2.47;1.87;;;;;;;21.40;62.78;97842.72;5016185;28;20241;-60
2021/10/17 01:12:12;;;;;;;2.20;2.00;;;;;;;21.34;62.88;97828.06;5015473;28;20230;-61
2021/10/17 01:14:38;;;;;;;2.30;2.10;;;;;;;21.40;62.73;97840.19;5017315;28;20644;-60
2021/10/17 01:17:05;;;;;;;2.20;2.00;;;;;;;21.34;62.63;97828.06;5014770;28;20292;-60
2021/10/17 01:19:31;;;;;;;2.13;2.00;;;;;;;21.37;62.77;97840.94;5020770;28;20237;-60
2021/10/17 01:21:58;;;;;;;2.03;1.93;;;;;;;21.38;63.10;97837.56;5020912;28;20206;-61
2021/10/17 01:24:25;;;;;;;1.93;1.83;;;;;;;21.32;63.13;97818.59;5015719;28;20242;-61
2021/10/17 01:26:51;;;;;;;2.30;2.10;;;;;;;21.36;62.64;97823.00;5018282;28;20308;-60
2021/10/17 01:29:18;;;;;;;2.20;2.00;;;;;;;21.34;63.26;97824.63;5016101;28;20230;-61
2021/10/17 01:31:51;;;;;;;2.50;2.30;;;;;;;21.36;63.04;97826.44;5017444;28;20942;-61
2021/10/17 01:34:18;;;;;;;2.50;2.30;;;;;;;21.29;63.05;97815.94;5002311;28;20729;-61
2021/10/17 01:36:45;;;;;;;2.40;2.20;;;;;;;21.31;63.02;97825.41;5015871;28;20258;-61
2021/10/17 01:39:13;;;;;;;2.00;1.80;;;;;;;21.37;62.87;97837.50;4990757;28;20236;-61
2021/10/17 01:41:39;;;;;;;2.47;2.10;;;;;;;21.39;62.91;97833.34;5016940;28;20573;-60
2021/10/17 01:44:11;;;;;;;2.10;1.90;;;;;;;21.38;62.93;97831.59;5004724;28;20341;-60
2021/10/17 01:46:38;;;;;;;2.13;1.93;;;;;;;21.39;62.78;97833.34;4986474;28;20222;-60
2021/10/17 01:49:05;;;;;;;2.47;2.27;;;;;;;21.38;63.01;97829.91;5015130;28;20237;-60
2021/10/17 01:51:32;;;;;;;2.30;2.10;;;;;;;21.37;62.95;97830.72;4998604;28;20236;-61
2021/10/17 01:53:59;;;;;;;2.20;2.00;;;;;;;21.39;63.11;97833.34;4986023;28;20573;-61
2021/10/17 01:56:25;;;;;;;2.03;1.93;;;;;;;21.40;62.68;97829.94;5005138;28;20276;-61
2021/10/17 01:58:52;;;;;;;2.27;2.07;;;;;;;21.39;63.32;97824.00;5017242;28;20232;-60
2021/10/17 02:01:19;;;;;;;2.60;2.40;;;;;;;21.34;63.21;97815.28;5015248;28;20637;-61
2021/10/17 02:03:46;;;;;;;2.37;2.00;;;;;;;21.37;63.06;97817.94;5016508;28;20221;-61
2021/10/17 02:06:12;;;;;;;2.20;2.00;;;;;;;21.33;62.65;97808.44;4999892;28;20232;-60
2021/10/17 02:08:39;;;;;;;1.93;1.83;;;;;;;21.38;62.91;97826.50;5020813;28;20210;-61
2021/10/17 02:11:05;;;;;;;2.50;2.30;;;;;;;21.33;63.49;97820.34;4999026;28;20587;-60
2021/10/17 02:13:32;;;;;;;2.27;2.07;;;;;;;21.30;62.93;97816.00;5002226;28;20194;-61
2021/10/17 02:15:58;;;;;;;2.20;2.00;;;;;;;21.34;62.84;97817.84;4998345;28;20229;-61
2021/10/17 02:18:25;;;;;;;2.07;1.90;;;;;;;21.36;62.96;97813.66;5014785;28;20269;-60
2021/10/17 02:20:52;;;;;;;2.00;1.90;;;;;;;21.34;62.93;97819.50;4999133;28;20652;-61
2021/10/17 02:23:18;;;;;;;2.20;2.00;;;;;;;21.35;63.03;97817.00;5014101;28;20241;-61
2021/10/17 02:25:45;;;;;;;2.10;2.00;;;;;;;21.30;63.01;97807.44;5020609;28;20237;-60
2021/10/17 02:28:11;;;;;;;2.27;2.07;;;;;;;21.31;62.92;97802.38;5015103;28;20254;-61
2021/10/17 02:30:38;;;;;;;2.30;2.10;;;;;;;21.37;62.83;97817.94;5016200;28;20234;-61
2021/10/17 02:33:04;;;;;;;2.30;2.10;;;;;;;21.39;62.91;97824.00;5014669;28;20735;-61
2021/10/17 02:35:31;;;;;;;2.40;2.20;;;;;;;21.38;62.98;97811.16;5019775;28;20825;-61
2021/10/17 02:37:58;;;;;;;2.10;1.90;;;;;;;21.39;62.95;97811.19;5019323;28;20268;-62
2021/10/17 02:40:24;;;;;;;2.20;2.00;;;;;;;21.38;62.97;97813.72;5020981;28;20198;-61
2021/10/17 02:42:51;;;;;;;2.03;1.93;;;;;;;21.37;62.71;97806.84;5024230;28;20254;-60
2021/10/17 02:45:17;;;;;;;2.30;2.10;;;;;;;21.40;63.18;97814.59;5016439;28;20240;-60
2021/10/17 02:47:44;;;;;;;2.40;2.20;;;;;;;21.40;62.80;97804.38;4997778;28;20260;-61
2021/10/17 02:50:11;;;;;;;2.07;1.93;;;;;;;21.40;62.80;97812.06;5013916;28;20245;-61
2021/10/17 02:52:37;;;;;;;2.40;2.20;;;;;;;21.34;62.73;97804.16;5018911;28;20233;-61
2021/10/17 02:55:04;;;;;;;2.40;2.20;;;;;;;21.40;62.57;97812.94;5018846;28;20236;-61
2021/10/17 02:57:31;;;;;;;2.27;2.07;;;;;;;21.35;62.65;97811.91;5020393;28;20275;-60
2021/10/17 02:59:57;;;;;;;2.57;2.30;;;;;;;21.40;62.74;97815.50;5019606;28;20301;-61
2021/10/17 03:02:24;;;;;;;2.60;2.40;;;;;;;21.40;62.84;97812.94;5014015;28;20237;-60
2021/10/17 03:04:51;;;;;;;2.33;2.13;;;;;;;21.35;62.56;97806.78;5015856;28;20332;-61
2021/10/17 03:07:17;;;;;;;2.07;1.97;;;;;;;21.36;62.73;97816.22;5014357;28;20242;-61
2021/10/17 03:09:44;;;;;;;2.50;2.30;;;;;;;21.37;62.55;97815.38;5019518;28;20635;-60
2021/10/17 03:12:10;;;;;;;2.27;2.07;;;;;;;21.38;62.74;97813.72;5017582;28;20236;-61
2021/10/17 03:14:37;;;;;;;2.30;2.10;;;;;;;21.35;62.49;97803.38;5018399;28;20684;-61
2021/10/17 03:17:06;;;;;;;2.57;2.37;;;;;;;21.36;62.47;97811.09;4996921;28;20651;-61
2021/10/17 03:19:33;;;;;;;2.50;2.30;;;;;;;21.32;63.07;97804.13;5011321;28;20198;-60
2021/10/17 03:21:59;;;;;;;2.33;2.13;;;;;;;21.27;62.70;97787.78;5002213;28;20229;-60
2021/10/17 03:24:26;;;;;;;2.40;2.20;;;;;;;21.37;62.80;97804.28;4995813;28;20304;-60
2021/10/17 03:26:52;;;;;;;2.33;2.13;;;;;;;21.38;62.75;97808.59;5020493;28;20245;-62
2021/10/17 03:29:19;;;;;;;2.33;2.17;;;;;;;21.26;62.69;97780.91;5017044;28;20289;-61
2021/10/17 03:31:46;;;;;;;2.30;2.10;;;;;;;21.34;62.33;97805.06;4997709;28;20206;-61
2021/10/17 03:34:12;;;;;;;2.43;2.23;;;;;;;21.38;62.72;97812.00;5014073;28;20194;-61
2021/10/17 03:36:39;;;;;;;2.20;2.00;;;;;;;21.38;62.54;97812.00;5022656;28;20313;-61
2021/10/17 03:39:05;;;;;;;2.00;1.90;;;;;;;21.33;62.67;97805.88;4996004;28;20202;-60
2021/10/17 03:41:32;;;;;;;2.40;2.20;;;;;;;21.39;63.03;97807.78;5023621;28;20239;-61
2021/10/17 03:43:59;;;;;;;2.27;2.07;;;;;;;21.37;62.86;97814.50;4996804;28;20245;-60
2021/10/17 03:46:25;;;;;;;2.47;2.27;;;;;;;21.36;62.57;97815.34;5013051;28;20295;-61
2021/10/17 03:48:52;;;;;;;2.20;2.00;;;;;;;21.39;62.55;97811.19;5016401;28;20229;-61
2021/10/17 03:51:19;;;;;;;2.53;2.33;;;;;;;21.34;62.75;97811.84;5013467;28;20230;-61
2021/10/17 03:53:45;;;;;;;2.33;2.13;;;;;;;21.41;62.81;97824.88;5005808;28;20269;-60
2021/10/17 03:56:12;;;;;;;2.23;2.10;;;;;;;21.34;62.66;97806.72;5012869;28;20301;-61
2021/10/17 03:58:38;;;;;;;2.30;2.10;;;;;;;21.39;62.66;97818.88;5025078;28;20624;-62
2021/10/17 04:01:05;;;;;;;2.23;2.10;;;;;;;21.36;62.68;97813.66;5013245;28;20233;-61
2021/10/17 04:03:32;;;;;;;2.50;2.30;;;;;;;21.39;62.66;97821.44;5013595;28;20605;-61
2021/10/17 04:05:58;;;;;;;2.57;2.37;;;;;;;21.39;62.71;97824.00;5013921;28;20228;-61
2021/10/17 04:08:25;;;;;;;2.30;2.10;;;;;;;21.36;62.97;97813.66;5013269;28;20268;-62
2021/10/17 04:10:52;;;;;;;2.10;2.00;;;;;;;21.36;62.81;97811.09;5023792;28;20198;-60
2021/10/17 04:13:18;;;;;;;2.43;2.23;;;;;;;21.20;63.02;97784.97;4995944;28;20199;-60
2021/10/17 04:15:45;;;;;;;2.43;2.23;;;;;;;21.31;63.32;97807.50;4996197;28;20234;-60
2021/10/17 04:18:11;;;;;;;2.13;2.03;;;;;;;21.37;62.93;97812.81;4989102;28;20226;-61
2021/10/17 04:20:38;;;;;;;2.30;2.10;;;;;;;21.33;62.91;97808.44;5009235;28;20213;-61
2021/10/17 04:23:06;;;;;;;2.47;2.27;;;;;;;21.37;62.70;97810.28;4993526;28;20552;-60
2021/10/17 04:25:33;;;;;;;2.27;2.10;;;;;;;21.39;62.76;97821.44;5011475;28;20248;-61
2021/10/17 04:28:00;;;;;;;2.20;2.00;;;;;;;21.31;62.60;97807.50;4995949;28;20253;-61
2021/10/17 04:30:27;;;;;;;2.30;2.10;;;;;;;21.37;62.72;97812.81;5000690;28;20260;-60
2021/10/17 04:32:53;;;;;;;2.40;2.20;;;;;;;21.34;62.61;97807.59;5015065;28;20255;-60
2021/10/17 04:35:20;;;;;;;2.33;2.13;;;;;;;21.29;62.68;97804.00;5016390;28;20233;-61
2021/10/17 04:37:46;;;;;;;2.47;2.27;;;;;;;21.39;62.81;97811.19;5001112;28;20309;-61
2021/10/17 04:40:13;;;;;;;2.33;2.13;;;;;;;21.35;62.98;97805.94;5017172;28;20236;-62
2021/10/17 04:42:41;;;;;;;2.10;1.93;;;;;;;21.35;62.64;97811.91;5001923;28;20237;-61
2021/10/17 04:45:07;;;;;;;2.27;2.10;;;;;;;21.33;62.67;97794.78;4997839;28;20489;-60
2021/10/17 04:47:34;;;;;;;2.43;2.23;;;;;;;21.32;62.77;97790.50;5013232;28;20218;-60
2021/10/17 04:50:01;;;;;;;2.13;2.03;;;;;;;21.38;62.69;97812.00;4996710;28;20233;-62
2021/10/17 04:52:27;;;;;;;2.50;2.30;;;;;;;21.39;62.58;97808.66;5001754;28;20268;-61
2021/10/17 04:54:54;;;;;;;2.50;2.30;;;;;;;21.38;62.93;97809.44;5015695;28;20284;-61
2021/10/17 04:57:20;;;;;;;2.10;2.00;;;;;;;21.37;62.87;97806.84;5013843;28;20813;-61
2021/10/17 04:59:47;;;;;;;2.17;2.00;;;;;;;21.37;62.64;97802.59;5010404;28;20592;-61
2021/10/17 05:02:14;;;;;;;2.40;2.20;;;;;;;21.33;62.74;97798.22;5007077;28;20866;-61
2021/10/17 05:04:40;;;;;;;2.43;2.23;;;;;;;21.20;62.62;97774.72;5010315;28;20636;-60
2021/10/17 05:07:07;;;;;;;2.50;2.30;;;;;;;21.34;62.98;97799.94;4989295;28;20261;-60
2021/10/17 05:09:34;;;;;;;2.20;2.00;;;;;;;21.27;62.21;97787.78;5045538;23;20654;-68
2021/10/17 05:12:00;;;;;;;2.50;2.10;;;;;;;21.35;62.87;97801.66;4991046;28;20198;-68
2021/10/17 05:14:27;;;;;;;2.50;2.30;;;;;;;21.27;62.70;97785.22;5001929;28;20237;-67
2021/10/17 05:16:53;;;;;;;4.13;2.47;;;;;;;20.94;62.80;97725.25;5031501;28;20232;-69
2021/10/17 05:19:20;;;;;;;2.33;2.13;;;;;;;21.37;62.83;97810.28;5013472;28;20256;-67
2021/10/17 05:21:48;;;;;;;2.10;2.00;;;;;;;21.20;62.97;97769.63;4993235;28;20650;-69
2021/10/17 05:24:14;;;;;;;2.20;2.00;;;;;;;21.22;62.86;97778.19;5021633;28;20253;-64
2021/10/17 05:26:41;;;;;;;2.50;2.30;;;;;;;21.37;63.03;97801.72;4989919;28;20749;-68
2021/10/17 05:29:07;;;;;;;2.23;2.13;;;;;;;21.24;62.57;97780.00;5008463;28;20315;-65
2021/10/17 05:31:34;;;;;;;2.30;2.10;;;;;;;21.36;62.62;97803.44;4992944;28;20275;-63
2021/10/17 05:34:00;;;;;;;2.50;2.30;;;;;;;21.37;62.84;97809.38;5009578;28;20206;-62
2021/10/17 05:36:27;;;;;;;2.40;2.20;;;;;;;21.37;62.97;97807.72;5008769;28;20649;-69
2021/10/17 05:38:54;;;;;;;2.20;2.00;;;;;;;21.28;62.72;97794.63;5007680;28;20280;-68
2021/10/17 05:41:22;;;;;;;2.40;2.20;;;;;;;21.38;62.79;97813.72;5008970;28;20209;-65
2021/10/17 05:43:50;;;;;;;1.90;1.80;;;;;;;21.38;62.91;97806.03;5007521;28;20221;-69
2021/10/17 05:46:16;;;;;;;2.40;2.20;;;;;;;21.38;62.78;97819.66;5009086;28;20245;-68
2021/10/17 05:48:43;;;;;;;2.07;1.97;;;;;;;21.39;62.66;97820.56;5029362;28;20233;-70
2021/10/17 05:51:10;;;;;;;2.40;2.20;;;;;;;21.19;62.65;97788.31;5007135;28;20257;-67
2021/10/17 05:53:36;;;;;;;2.27;2.07;;;;;;;21.25;62.94;97798.75;4991980;28;20630;-69
2021/10/17 05:56:03;;;;;;;2.30;2.10;;;;;;;21.35;62.78;97822.13;5009071;28;20237;-66
2021/10/17 05:58:30;;;;;;;2.20;2.10;;;;;;;21.35;62.79;97819.56;5007818;28;20657;-68
2021/10/17 06:00:56;;;;;;;2.40;2.20;;;;;;;21.34;62.88;97825.50;5009286;28;20711;-66
2021/10/17 06:03:23;;;;;;;2.10;2.00;;;;;;;21.34;62.59;97828.06;5009441;28;20209;-65
2021/10/17 06:05:50;;;;;;;2.10;2.00;;;;;;;21.35;62.89;97836.63;5008423;28;20395;-67
2021/10/17 06:08:18;;;;;;;2.43;2.23;;;;;;;21.33;62.54;97834.00;5005267;28;20241;-68
2021/10/17 06:10:46;;;;;;;2.37;2.17;;;;;;;21.35;62.20;97834.06;5008915;28;20220;-66
2021/10/17 06:13:12;;;;;;;3.00;2.70;;;;;;;21.31;59.79;97827.06;5008888;28;20632;-66
2021/10/17 06:15:39;;;;;;;3.50;3.10;;;;;;;21.34;57.21;97837.41;5008434;28;20297;-66
2021/10/17 06:18:05;;;;;;;3.43;3.13;;;;;;;21.33;55.39;97839.13;5009030;28;20233;-67
2021/10/17 06:20:32;;;;;;;4.33;3.50;;;;;;;21.28;53.98;97827.84;5008562;28;20258;-67
2021/10/17 06:22:59;;;;;;;4.23;3.63;;;;;;;21.30;52.56;97844.13;4988515;28;20297;-66
2021/10/17 06:25:25;;;;;;;4.97;3.60;;;;;;;21.22;52.30;97826.75;4989209;28;20313;-68
2021/10/17 06:27:52;;;;;;;5.83;3.53;;;;;;;21.21;52.68;97833.56;5007115;28;20240;-67
2021/10/17 06:30:18;;;;;;;3.90;3.50;;;;;;;21.29;53.52;97847.47;5008008;28;20261;-65
2021/10/17 06:32:45;;;;;;;3.37;3.07;;;;;;;21.28;54.37;97845.75;5009277;28;20757;-66
2021/10/17 06:35:13;;;;;;;5.57;3.50;;;;;;;21.29;54.70;97849.19;5007160;28;20311;-65
2021/10/17 06:37:40;;;;;;;3.40;3.10;;;;;;;21.24;55.43;97838.78;5007820;28;20670;-67
2021/10/17 06:40:07;;;;;;;4.03;2.97;;;;;;;21.30;56.26;97854.34;5007962;28;20276;-64
2021/10/17 06:42:34;;;;;;;4.90;3.27;;;;;;;21.25;56.67;97845.63;5010556;28;20328;-68
2021/10/17 06:45:00;;;;;;;4.30;3.30;;;;;;;21.29;56.71;97852.59;5009915;28;20309;-66
2021/10/17 06:47:27;;;;;;;3.77;3.10;;;;;;;21.29;57.64;97857.69;5010418;28;20249;-66
2021/10/17 06:49:53;;;;;;;4.17;3.00;;;;;;;21.28;57.92;97858.53;5018168;28;20280;-67
2021/10/17 06:52:20;;;;;;;3.40;3.10;;;;;;;21.27;57.85;97850.81;5017390;28;20297;-68
2021/10/17 06:54:46;;;;;;;3.03;2.70;;;;;;;21.13;57.73;97834.97;5017239;28;20982;-64
2021/10/17 06:57:13;;;;;;;3.03;2.73;;;;;;;21.28;58.01;97860.19;5000452;28;20249;-66
2021/10/17 06:59:40;;;;;;;3.50;2.93;;;;;;;21.27;57.98;97855.91;5018765;28;20311;-67
2021/10/17 07:02:06;;;;;;;4.90;2.90;;;;;;;21.26;58.20;97864.41;5015635;28;20328;-66
2021/10/17 07:04:33;;;;;;;3.17;2.97;;;;;;;21.27;58.40;97863.59;5016837;28;20251;-67
2021/10/17 07:07:00;;;;;;;3.17;2.90;;;;;;;21.28;59.14;97866.19;5017986;28;20234;-66
2021/10/17 07:09:26;;;;;;;3.17;2.87;;;;;;;21.27;59.48;97866.13;4983999;28;20308;-66
2021/10/17 07:11:53;;;;;;;3.00;2.70;;;;;;;21.30;59.43;97873.91;4999623;28;20554;-66
2021/10/17 07:14:19;;;;;;;2.80;2.60;;;;;;;21.29;59.44;97865.38;5027135;28;20256;-68
2021/10/17 07:16:46;;;;;;;2.90;2.70;;;;;;;21.15;59.49;97848.69;5023535;28;20674;-66
2021/10/17 07:19:13;;;;;;;2.93;2.70;;;;;;;21.30;59.62;97876.47;5021058;28;20222;-68
2021/10/17 07:21:39;;;;;;;3.37;3.07;;;;;;;21.27;59.34;97868.69;5019073;28;20232;-66
2021/10/17 07:24:06;;;;;;;2.83;2.63;;;;;;;21.23;59.33;97861.75;5024989;28;20283;-65
2021/10/17 07:26:32;;;;;;;3.10;2.90;;;;;;;21.30;59.47;97877.34;5008897;28;20248;-67
2021/10/17 07:28:59;;;;;;;3.00;2.80;;;;;;;21.31;59.55;97879.09;5025330;28;20328;-66
2021/10/17 07:31:25;;;;;;;3.07;2.70;;;;;;;21.32;60.02;97885.94;5025728;28;20204;-68
2021/10/17 07:33:52;;;;;;;3.07;2.73;;;;;;;21.11;59.67;97851.09;5024924;28;20265;-66
2021/10/17 07:36:19;;;;;;;2.63;2.43;;;;;;;21.33;59.96;97892.81;5019684;28;20201;-69
2021/10/17 07:38:45;;;;;;;3.33;3.03;;;;;;;21.32;60.07;97891.03;5006794;28;20217;-66
2021/10/17 07:41:12;;;;;;;2.80;2.60;;;;;;;21.32;60.04;97887.63;5021990;28;20768;-68
2021/10/17 07:43:38;;;;;;;3.00;2.70;;;;;;;21.32;60.13;97900.41;5001255;28;20237;-66
2021/10/17 07:46:05;;;;;;;2.70;2.50;;;;;;;21.27;59.87;97894.25;5021174;28;20347;-67
2021/10/17 07:48:36;;;;;;;3.33;2.60;;;;;;;21.31;59.53;97896.97;5014934;28;20202;-67
2021/10/17 07:51:04;;;;;;;4.03;3.10;;;;;;;21.31;58.76;97904.66;5019137;28;20239;-67
2021/10/17 07:53:31;;;;;;;3.40;3.10;;;;;;;21.32;58.94;97905.53;5006592;28;20314;-68
2021/10/17 07:55:57;;;;;;;3.37;3.07;;;;;;;21.30;59.38;97904.59;5024615;28;20689;-66
2021/10/17 07:58:25;;;;;;;2.93;2.70;;;;;;;21.32;59.43;97905.53;5021037;28;20233;-65
2021/10/17 08:00:52;;;;;;;3.10;2.90;;;;;;;21.30;59.74;97902.03;5017443;28;20234;-65
2021/10/17 08:03:20;;;;;;;3.17;2.87;;;;;;;21.34;59.93;97906.44;5008781;28;20588;-68
2021/10/17 08:05:47;;;;;;;4.03;2.90;;;;;;;21.33;59.67;97905.59;5023449;28;20233;-65
2021/10/17 08:08:13;;;;;;;6.70;3.20;;;;;;;21.25;60.36;97901.00;5035186;28;20685;-68
2021/10/17 08:10:40;;;;;;;2.80;2.60;;;;;;;21.26;60.36;97895.94;5021322;28;20265;-69
2021/10/17 08:13:07;;;;;;;5.67;3.07;;;;;;;21.34;60.58;97912.44;5032651;28;20288;-67
2021/10/17 08:15:34;;;;;;;4.73;2.60;;;;;;;21.33;60.42;97897.03;5023437;28;20204;-66
2021/10/17 08:18:00;;;;;;;2.73;2.50;;;;;;;21.36;60.46;97904.81;5024405;28;20252;-66
2021/10/17 08:20:27;;;;;;;7.63;2.90;;;;;;;21.22;60.69;97881.31;5026602;28;20664;-67
2021/10/17 08:22:53;;;;;;;4.30;2.93;;;;;;;21.35;60.54;97914.16;5031621;28;20288;-67
2021/10/17 08:25:20;;;;;;;3.47;3.03;;;;;;;21.34;60.68;97915.00;5026571;28;20221;-66
2021/10/17 08:27:47;;;;;;;3.23;2.93;;;;;;;21.36;60.67;97915.94;5026478;28;20280;-68
2021/10/17 08:30:13;;;;;;;4.57;2.87;;;;;;;21.28;60.40;97907.09;5030032;28;20217;-65
2021/10/17 08:32:40;;;;;;;3.40;2.60;;;;;;;21.31;60.70;97922.53;4991137;28;20291;-66
2021/10/17 08:35:07;;;;;;;2.90;2.50;;;;;;;21.35;60.66;97929.50;5021119;28;20638;-67
2021/10/17 08:37:33;;;;;;;6.67;2.90;;;;;;;21.34;60.37;97925.22;5022952;28;20639;-67
2021/10/17 08:40:01;;;;;;;2.97;2.73;;;;;;;21.35;60.52;97926.09;5019909;28;20225;-69
2021/10/17 08:42:27;;;;;;;5.90;2.90;;;;;;;21.35;60.52;97931.22;5028459;28;20289;-66
2021/10/17 08:45:05;;;;;;;4.40;2.77;;;;;;;21.33;60.26;97922.59;5026146;28;20890;-64
2021/10/17 08:47:32;;;;;;;3.60;2.70;;;;;;;21.35;60.65;97926.94;5018074;28;20276;-66
2021/10/17 08:49:59;;;;;;;2.77;2.30;;;;;;;21.30;60.49;97919.94;5021693;28;20304;-66
2021/10/17 08:52:25;;;;;;;2.97;2.70;;;;;;;21.33;60.62;97918.38;5024569;28;20236;-65
2021/10/17 08:54:52;;;;;;;3.23;2.87;;;;;;;21.34;60.43;97920.09;5028825;28;20216;-66
2021/10/17 08:57:19;;;;;;;4.33;2.73;;;;;;;21.35;60.70;97926.94;5026863;28;20289;-65
2021/10/17 08:59:46;;;;;;;3.93;2.93;;;;;;;21.24;60.69;97900.16;5034370;28;20257;-66
2021/10/17 09:02:14;;;;;;;5.67;2.87;;;;;;;21.34;60.49;97922.66;5011101;28;20293;-64
2021/10/17 09:04:41;;;;;;;2.97;2.73;;;;;;;21.35;60.32;97916.72;5027518;28;20217;-66
2021/10/17 09:07:21;;;;;;;3.97;2.80;;;;;;;21.04;60.41;97867.00;5008548;28;20260;-67
2021/10/17 09:10:07;;;;;;;5.13;2.90;;;;;;;21.22;60.63;97900.88;5039838;28;20288;-68
2021/10/17 09:12:34;;;;;;;3.13;2.70;;;;;;;21.35;60.64;97923.53;5010828;28;20233;-69
2021/10/17 09:15:19;;;;;;;4.60;3.00;;;;;;;21.35;60.56;97919.28;5011202;28;20229;-66
2021/10/17 09:18:04;;;;;;;2.63;2.43;;;;;;;21.35;60.75;97918.44;5029855;28;20637;-66
2021/10/17 09:20:32;;;;;;;5.50;2.83;;;;;;;21.36;60.69;97927.81;5030241;28;20354;-66
2021/10/17 09:23:03;;;;;;;3.00;2.70;;;;;;;21.28;61.03;97911.31;5015595;28;20643;-68
2021/10/17 09:25:35;;;;;;;2.90;2.70;;;;;;;21.31;60.79;97916.56;5010450;28;20282;-69
2021/10/17 09:28:12;;;;;;;2.87;2.60;;;;;;;21.31;60.82;97916.56;5031058;28;20295;-66
2021/10/17 09:30:39;;;;;;;2.80;2.60;;;;;;;21.34;60.31;97925.22;5015824;28;20256;-67
2021/10/17 09:33:20;;;;;;;2.70;2.50;;;;;;;21.34;60.70;97921.78;5024887;28;20267;-66
2021/10/17 09:35:46;;;;;;;2.77;2.57;;;;;;;21.34;60.93;97924.34;5031002;28;20616;-67
2021/10/17 09:38:15;;;;;;;3.07;2.77;;;;;;;21.25;60.90;97912.09;5025569;28;20289;-66
2021/10/17 09:40:44;;;;;;;3.40;2.67;;;;;;;21.34;60.98;97921.78;5028691;28;20721;-66
2021/10/17 09:43:13;;;;;;;3.13;2.83;;;;;;;21.35;60.94;97919.28;5028235;28;20229;-65
2021/10/17 09:45:40;;;;;;;4.17;2.80;;;;;;;21.26;61.18;97902.75;5013363;28;20332;-65
2021/10/17 09:48:07;;;;;;;2.83;2.63;;;;;;;21.32;60.62;97916.59;5039423;28;20245;-69
2021/10/17 09:50:33;;;;;;;2.97;2.77;;;;;;;21.27;61.09;97912.16;4996948;28;20307;-66
2021/10/17 09:53:14;;;;;;;3.10;2.80;;;;;;;21.23;61.15;97895.81;5022680;28;20206;-66
2021/10/17 09:55:51;;;;;;;3.13;2.83;;;;;;;21.36;60.94;97920.16;5012841;28;20575;-65
2021/10/17 09:58:18;;;;;;;2.87;2.57;;;;;;;21.36;60.84;97923.59;5007753;28;20220;-67
2021/10/17 10:00:44;;;;;;;3.67;2.80;;;;;;;21.36;60.71;97922.72;5032191;28;20263;-66
2021/10/17 10:03:11;;;;;;;4.73;2.80;;;;;;;20.90;61.02;97840.91;5037293;28;20255;-65
2021/10/17 10:05:38;;;;;;;2.80;2.60;;;;;;;21.36;60.91;97915.94;5024221;28;20657;-67
2021/10/17 10:08:05;;;;;;;3.00;2.80;;;;;;;21.15;60.95;97876.81;4993590;28;20282;-70
2021/10/17 10:10:31;;;;;;;2.60;2.40;;;;;;;21.37;60.96;97906.53;5021025;28;20230;-66
2021/10/17 10:13:01;;;;;;;2.80;2.60;;;;;;;21.28;61.00;97891.75;5006831;28;20237;-65
2021/10/17 10:15:27;;;;;;;3.50;3.00;;;;;;;21.37;61.07;97909.97;5045177;28;20667;-66
2021/10/17 10:17:55;;;;;;;2.80;2.60;;;;;;;21.08;60.98;97845.88;5003956;28;20284;-66
2021/10/17 10:20:24;;;;;;;2.67;2.47;;;;;;;21.36;61.11;97899.69;5018329;28;20319;-66
2021/10/17 10:22:51;;;;;;;3.13;2.87;;;;;;;21.35;61.21;97900.53;5012356;28;20255;-68
2021/10/17 10:25:18;;;;;;;2.83;2.60;;;;;;;21.35;60.78;97903.09;5024657;28;20301;-69
2021/10/17 10:27:45;;;;;;;3.67;2.57;;;;;;;21.20;61.00;97888.03;5009132;28;20197;-63
2021/10/17 10:30:32;;;;;;;3.43;2.70;;;;;;;21.34;60.77;97909.88;5011274;28;20257;-66
2021/10/17 10:33:13;;;;;;;2.77;2.57;;;;;;;21.34;60.94;97896.22;5029105;28;20360;-68
2021/10/17 10:36:06;;;;;;;2.90;2.70;;;;;;;21.34;61.03;97897.09;5028391;28;20194;-66
2021/10/17 10:38:51;;;;;;;2.70;2.50;;;;;;;21.35;61.20;97891.16;5027872;28;20285;-68
2021/10/17 10:41:22;;;;;;;2.97;2.57;;;;;;;21.35;61.15;97896.25;5017886;28;20198;-66
2021/10/17 10:43:49;;;;;;;3.13;2.87;;;;;;;21.36;61.15;97899.69;5003884;28;20206;-66
2021/10/17 10:46:28;;;;;;;2.87;2.67;;;;;;;21.16;61.13;97859.75;5025077;28;20661;-66
2021/10/17 10:48:55;;;;;;;2.97;2.77;;;;;;;21.35;61.26;97896.25;5032159;28;20250;-68
2021/10/17 10:51:46;;;;;;;2.80;2.60;;;;;;;21.35;61.21;97888.59;5005801;28;20280;-67
2021/10/17 10:54:25;;;;;;;3.07;2.87;;;;;;;21.36;61.53;97884.38;5009719;28;20198;-66
2021/10/17 10:56:56;;;;;;;2.90;2.60;;;;;;;21.35;61.28;97886.03;5028283;28;20732;-67
2021/10/17 10:59:25;;;;;;;2.90;2.70;;;;;;;21.36;61.24;97876.69;5012497;28;20217;-65
2021/10/17 11:02:01;;;;;;;3.37;3.00;;;;;;;21.35;61.34;97880.06;4996436;28;20201;-64
2021/10/17 11:04:44;;;;;;;3.13;2.83;;;;;;;21.35;61.44;97873.25;5022170;28;20194;-66
2021/10/17 11:07:27;;;;;;;3.10;2.80;;;;;;;21.36;61.12;97879.25;5029405;28;20564;-66
2021/10/17 11:12:41;;;;;;;4.07;2.70;;;;;;;21.35;61.47;97875.81;5052475;22;20291;-62
2021/10/17 11:15:08;;;;;;;2.67;2.47;;;;;;;21.35;61.27;97868.13;5029937;28;20197;-62
2021/10/17 11:17:35;;;;;;;2.80;2.60;;;;;;;21.34;61.29;97870.66;5028140;28;20300;-62
2021/10/17 11:20:02;;;;;;;2.50;2.30;;;;;;;21.11;61.32;97834.03;5031169;28;20236;-62
2021/10/17 11:22:35;;;;;;;3.13;2.70;;;;;;;21.33;61.47;97863.81;5019242;28;20281;-62
2021/10/17 11:25:02;;;;;;;3.50;3.00;;;;;;;21.32;61.32;97862.91;5010132;28;20255;-62
2021/10/17 11:27:28;;;;;;;2.90;2.70;;;;;;;21.34;61.19;97868.97;5027767;28;20661;-62
2021/10/17 11:29:55;;;;;;;2.80;2.60;;;;;;;21.34;61.44;97858.75;5027160;28;20238;-62
2021/10/17 11:32:22;;;;;;;4.47;2.70;;;;;;;21.34;61.55;97862.97;5028974;28;20248;-62
2021/10/17 11:34:59;;;;;;;2.63;2.43;;;;;;;20.91;61.36;97783.91;4991507;28;20232;-62
2021/10/17 11:37:27;;;;;;;2.90;2.70;;;;;;;20.48;61.29;97705.66;5020166;28;20259;-63
2021/10/17 11:39:55;;;;;;;3.40;2.77;;;;;;;17.31;61.15;97183.13;5035735;28;20225;-61